Friday, January 19, 2018, 10:35 AM EST
Back to Local

KLNS, Lancaster Airport

Location: Lititz, PA, United States Lat: 40.117
Local Time: 10:35 AM EST (15:35 GMT) Lon: -76.3
Time Zone: US/Eastern Elev: 403 ft

Show me the last for .
Show Decoded

2018-01-19 09:53 METAR KLNS 191453Z 00000KT 8SM CLR M03/M08 A3010 RMK AO2 SLP199 T10281078 53007
                 =
2018-01-19 08:53 METAR KLNS 191353Z 26003KT 7SM CLR M06/M09 A3009 RMK AO2 SLP194 T10611089 =
2018-01-19 07:53 METAR KLNS 191253Z 00000KT 6SM BR CLR M08/M10 A3008 RMK AO2 SLP192 T10781100 =
2018-01-19 06:53 METAR KLNS 191153Z 00000KT 8SM CLR M10/M12 A3008 RMK AO2 SLP192 T11001117 11061
                 21106 53006 =
2018-01-19 05:53 METAR KLNS 191053Z 00000KT 8SM CLR M09/M11 A3007 RMK AO2 SLP187 T10941106 =
2018-01-19 04:53 METAR KLNS 190953Z AUTO 00000KT 9SM CLR M08/M11 A3006 RMK AO2 SLP186 T10831106 =
2018-01-19 03:53 METAR KLNS 190853Z AUTO 00000KT 10SM CLR M08/M10 A3006 RMK AO2 SLP185 T10781100
                 53002 =
2018-01-19 02:53 METAR KLNS 190753Z AUTO 00000KT 10SM CLR M07/M10 A3005 RMK AO2 SLP182 T10721100
                 =
2018-01-19 01:53 METAR KLNS 190653Z AUTO 00000KT 10SM CLR M07/M11 A3005 RMK AO2 SLP179 T10671106
                 =
2018-01-19 00:53 METAR KLNS 190553Z AUTO 00000KT 10SM CLR M08/M11 A3005 RMK AO2 SLP183 T10781106
                 11011 21078 58011 =
2018-01-18 23:53 METAR KLNS 190453Z AUTO 00000KT 10SM CLR M06/M09 A3008 RMK AO2 SLP191 T10561094
                 400171133 =
2018-01-18 22:53 METAR KLNS 190353Z 00000KT 10SM CLR M04/M10 A3008 RMK AO2 SLP192 T10391100 =
2018-01-18 21:53 METAR KLNS 190253Z 29003KT 10SM CLR M03/M10 A3009 RMK AO2 SLP194 T10281100 51015
                 =
2018-01-18 20:53 METAR KLNS 190153Z 29005KT 10SM CLR M02/M10 A3008 RMK AO2 SLP190 T10221100 =
2018-01-18 19:53 METAR KLNS 190053Z 32007KT 10SM CLR M02/M10 A3006 RMK AO2 SLP186 T10171100 =
2018-01-18 18:53 METAR KLNS 182353Z 33008KT 10SM CLR M01/M09 A3004 RMK AO2 SLP180 T10111094 10017
                 21011 53020 =
2018-01-18 17:53 METAR KLNS 182253Z 32008KT 10SM CLR M01/M10 A3002 RMK AO2 SLP172 T10061100 =
2018-01-18 16:53 METAR KLNS 182153Z 32007KT 10SM CLR 00/M11 A3000 RMK AO2 SLP165 T00001106 =
2018-01-18 15:53 METAR KLNS 182053Z 33009KT 10SM CLR 02/M11 A2998 RMK AO2 SLP159 T00171106 55014
                 =
2018-01-18 14:53 METAR KLNS 181953Z 27009KT 10SM CLR 01/M09 A2998 RMK AO2 SLP158 T00111094 =
2018-01-18 13:53 METAR KLNS 181853Z 28014KT 10SM CLR 01/M10 A2999 RMK AO2 SLP163 T00061100 =
2018-01-18 12:53 METAR KLNS 181753Z 29013KT 10SM CLR M01/M11 A3002 RMK AO2 SLP173 T10061111 11006
                 21117 58032 =
2018-01-18 11:53 METAR KLNS 181653Z 28007KT 10SM CLR M03/M13 A3007 RMK AO2 SLP189 T10331128 =
2018-01-18 10:53 METAR KLNS 181553Z 29008KT 10SM CLR M04/M13 A3010 RMK AO2 SLP200 T10441128 =

Support USWX by starting your Amazon purchase here.